sensor_id;sensor_type;location;lat;lon;timestamp;temperature;humidity
6696;DHT22;3385;48.928;10.330;2022-11-18T00:00:46;6.60;99.90
6696;DHT22;3385;48.928;10.330;2022-11-18T00:03:12;6.50;99.90
6696;DHT22;3385;48.928;10.330;2022-11-18T00:05:38;6.50;99.90
6696;DHT22;3385;48.928;10.330;2022-11-18T00:08:04;6.50;99.90
6696;DHT22;3385;48.928;10.330;2022-11-18T00:10:30;6.50;99.90
6696;DHT22;3385;48.928;10.330;2022-11-18T00:12:56;6.50;99.90
6696;DHT22;3385;48.928;10.330;2022-11-18T00:15:40;6.50;99.90
6696;DHT22;3385;48.928;10.330;2022-11-18T00:18:06;6.50;99.90
6696;DHT22;3385;48.928;10.330;2022-11-18T00:20:35;6.50;99.90
6696;DHT22;3385;48.928;10.330;2022-11-18T00:23:00;6.40;99.90
6696;DHT22;3385;48.928;10.330;2022-11-18T00:25:26;6.40;99.90
6696;DHT22;3385;48.928;10.330;2022-11-18T00:27:53;6.40;99.90
6696;DHT22;3385;48.928;10.330;2022-11-18T00:30:19;6.30;99.90
6696;DHT22;3385;48.928;10.330;2022-11-18T00:32:44;6.30;99.90
6696;DHT22;3385;48.928;10.330;2022-11-18T00:35:10;6.30;99.90
6696;DHT22;3385;48.928;10.330;2022-11-18T00:37:36;6.20;99.90
6696;DHT22;3385;48.928;10.330;2022-11-18T00:40:02;6.20;99.90
6696;DHT22;3385;48.928;10.330;2022-11-18T00:42:28;6.20;99.90
6696;DHT22;3385;48.928;10.330;2022-11-18T00:45:12;6.20;99.90
6696;DHT22;3385;48.928;10.330;2022-11-18T00:47:38;6.20;99.90
6696;DHT22;3385;48.928;10.330;2022-11-18T00:50:04;6.10;99.90
6696;DHT22;3385;48.928;10.330;2022-11-18T00:52:29;6.10;99.90
6696;DHT22;3385;48.928;10.330;2022-11-18T00:54:55;6.00;99.90
6696;DHT22;3385;48.928;10.330;2022-11-18T00:57:21;5.90;99.90
6696;DHT22;3385;48.928;10.330;2022-11-18T00:59:47;5.80;99.90
6696;DHT22;3385;48.928;10.330;2022-11-18T01:02:12;5.80;99.90
6696;DHT22;3385;48.928;10.330;2022-11-18T01:04:38;5.70;99.90
6696;DHT22;3385;48.928;10.330;2022-11-18T01:07:04;5.70;99.90
6696;DHT22;3385;48.928;10.330;2022-11-18T01:09:29;5.70;99.90
6696;DHT22;3385;48.928;10.330;2022-11-18T01:11:55;5.70;99.90
6696;DHT22;3385;48.928;10.330;2022-11-18T01:14:39;5.70;99.90
6696;DHT22;3385;48.928;10.330;2022-11-18T01:17:06;5.80;99.90
6696;DHT22;3385;48.928;10.330;2022-11-18T01:19:31;5.80;99.90
6696;DHT22;3385;48.928;10.330;2022-11-18T01:21:57;5.80;99.90
6696;DHT22;3385;48.928;10.330;2022-11-18T01:24:28;5.90;99.90
6696;DHT22;3385;48.928;10.330;2022-11-18T01:26:54;5.90;99.90
6696;DHT22;3385;48.928;10.330;2022-11-18T01:29:20;5.60;99.90
6696;DHT22;3385;48.928;10.330;2022-11-18T01:31:46;5.90;99.90
6696;DHT22;3385;48.928;10.330;2022-11-18T01:34:11;6.00;99.90
6696;DHT22;3385;48.928;10.330;2022-11-18T01:36:37;6.00;99.90
6696;DHT22;3385;48.928;10.330;2022-11-18T01:39:03;6.00;99.90
6696;DHT22;3385;48.928;10.330;2022-11-18T01:41:29;6.00;99.90
6696;DHT22;3385;48.928;10.330;2022-11-18T01:44:04;6.00;99.90
6696;DHT22;3385;48.928;10.330;2022-11-18T01:46:32;6.00;99.90
6696;DHT22;3385;48.928;10.330;2022-11-18T01:48:59;6.00;99.90
6696;DHT22;3385;48.928;10.330;2022-11-18T01:51:29;6.00;99.90
6696;DHT22;3385;48.928;10.330;2022-11-18T01:54:03;4.70;99.90
6696;DHT22;3385;48.928;10.330;2022-11-18T01:56:38;6.00;99.90
6696;DHT22;3385;48.928;10.330;2022-11-18T01:59:07;6.00;99.90
6696;DHT22;3385;48.928;10.330;2022-11-18T02:01:36;6.10;99.90
6696;DHT22;3385;48.928;10.330;2022-11-18T02:04:02;6.00;99.90
6696;DHT22;3385;48.928;10.330;2022-11-18T02:06:28;6.00;99.90
6696;DHT22;3385;48.928;10.330;2022-11-18T02:08:55;6.00;99.90
6696;DHT22;3385;48.928;10.330;2022-11-18T02:11:21;6.10;99.90
6696;DHT22;3385;48.928;10.330;2022-11-18T02:14:08;6.10;99.90
6696;DHT22;3385;48.928;10.330;2022-11-18T02:24:49;6.10;99.90
6696;DHT22;3385;48.928;10.330;2022-11-18T02:27:37;6.00;99.90
6696;DHT22;3385;48.928;10.330;2022-11-18T02:30:09;6.00;99.90
6696;DHT22;3385;48.928;10.330;2022-11-18T02:35:38;6.00;99.90
6696;DHT22;3385;48.928;10.330;2022-11-18T02:38:10;6.00;99.90
6696;DHT22;3385;48.928;10.330;2022-11-18T02:40:47;6.00;99.90
6696;DHT22;3385;48.928;10.330;2022-11-18T02:43:21;6.00;99.90
6696;DHT22;3385;48.928;10.330;2022-11-18T02:45:53;6.00;99.90
6696;DHT22;3385;48.928;10.330;2022-11-18T02:48:23;6.00;99.90
6696;DHT22;3385;48.928;10.330;2022-11-18T02:50:51;6.10;99.90
6696;DHT22;3385;48.928;10.330;2022-11-18T02:53:19;6.10;99.90
6696;DHT22;3385;48.928;10.330;2022-11-18T02:55:45;6.10;99.90
6696;DHT22;3385;48.928;10.330;2022-11-18T02:58:15;6.10;99.90
6696;DHT22;3385;48.928;10.330;2022-11-18T03:00:42;6.10;99.90
6696;DHT22;3385;48.928;10.330;2022-11-18T03:03:38;6.10;99.90
6696;DHT22;3385;48.928;10.330;2022-11-18T03:08:51;6.10;99.90
6696;DHT22;3385;48.928;10.330;2022-11-18T03:11:28;6.10;99.90
6696;DHT22;3385;48.928;10.330;2022-11-18T03:14:34;6.10;99.90
6696;DHT22;3385;48.928;10.330;2022-11-18T03:17:08;6.10;99.90
6696;DHT22;3385;48.928;10.330;2022-11-18T03:25:09;6.10;99.90
6696;DHT22;3385;48.928;10.330;2022-11-18T03:27:56;6.10;99.90
6696;DHT22;3385;48.928;10.330;2022-11-18T03:30:25;6.10;99.90
6696;DHT22;3385;48.928;10.330;2022-11-18T03:33:05;6.10;99.90
6696;DHT22;3385;48.928;10.330;2022-11-18T03:35:38;6.10;99.90
6696;DHT22;3385;48.928;10.330;2022-11-18T03:38:09;6.10;99.90
6696;DHT22;3385;48.928;10.330;2022-11-18T03:40:38;6.10;99.90
6696;DHT22;3385;48.928;10.330;2022-11-18T03:43:11;6.10;99.90
6696;DHT22;3385;48.928;10.330;2022-11-18T03:45:50;6.10;99.90
6696;DHT22;3385;48.928;10.330;2022-11-18T03:48:19;6.10;99.90
6696;DHT22;3385;48.928;10.330;2022-11-18T03:50:50;6.10;99.90
6696;DHT22;3385;48.928;10.330;2022-11-18T03:53:18;6.10;99.90
6696;DHT22;3385;48.928;10.330;2022-11-18T03:55:49;6.20;99.90
6696;DHT22;3385;48.928;10.330;2022-11-18T03:58:39;6.20;99.90
6696;DHT22;3385;48.928;10.330;2022-11-18T04:01:33;6.20;99.90
6696;DHT22;3385;48.928;10.330;2022-11-18T04:04:01;6.20;99.90
6696;DHT22;3385;48.928;10.330;2022-11-18T04:06:38;6.20;99.90
6696;DHT22;3385;48.928;10.330;2022-11-18T04:09:19;6.20;99.90
6696;DHT22;3385;48.928;10.330;2022-11-18T04:12:03;6.20;99.90
6696;DHT22;3385;48.928;10.330;2022-11-18T04:14:35;6.20;99.90
6696;DHT22;3385;48.928;10.330;2022-11-18T04:17:23;6.20;99.90
6696;DHT22;3385;48.928;10.330;2022-11-18T04:19:50;6.20;99.90
6696;DHT22;3385;48.928;10.330;2022-11-18T04:22:17;6.20;99.90
6696;DHT22;3385;48.928;10.330;2022-11-18T04:24:43;6.20;99.90
6696;DHT22;3385;48.928;10.330;2022-11-18T04:27:09;6.20;99.90
6696;DHT22;3385;48.928;10.330;2022-11-18T04:29:37;6.20;99.90
6696;DHT22;3385;48.928;10.330;2022-11-18T04:32:04;6.20;99.90
6696;DHT22;3385;48.928;10.330;2022-11-18T04:34:30;6.20;99.90
6696;DHT22;3385;48.928;10.330;2022-11-18T04:36:56;6.30;99.90
6696;DHT22;3385;48.928;10.330;2022-11-18T04:39:22;6.30;99.90
6696;DHT22;3385;48.928;10.330;2022-11-18T04:41:47;6.30;99.90
6696;DHT22;3385;48.928;10.330;2022-11-18T04:44:23;6.30;99.90
6696;DHT22;3385;48.928;10.330;2022-11-18T04:46:49;6.40;99.90
6696;DHT22;3385;48.928;10.330;2022-11-18T04:49:15;6.30;99.90
6696;DHT22;3385;48.928;10.330;2022-11-18T04:51:42;6.30;99.90
6696;DHT22;3385;48.928;10.330;2022-11-18T04:54:08;6.30;99.90
6696;DHT22;3385;48.928;10.330;2022-11-18T04:56:34;6.40;99.90
6696;DHT22;3385;48.928;10.330;2022-11-18T04:59:01;6.30;99.90
6696;DHT22;3385;48.928;10.330;2022-11-18T05:01:28;6.40;99.90
6696;DHT22;3385;48.928;10.330;2022-11-18T05:03:54;6.40;99.90
6696;DHT22;3385;48.928;10.330;2022-11-18T05:06:20;6.30;99.90
6696;DHT22;3385;48.928;10.330;2022-11-18T05:08:46;6.30;99.90
6696;DHT22;3385;48.928;10.330;2022-11-18T05:11:12;6.30;99.90
6696;DHT22;3385;48.928;10.330;2022-11-18T05:13:56;6.30;99.90
6696;DHT22;3385;48.928;10.330;2022-11-18T05:16:22;6.30;99.90
6696;DHT22;3385;48.928;10.330;2022-11-18T05:18:48;6.20;99.90
6696;DHT22;3385;48.928;10.330;2022-11-18T05:21:14;6.20;99.90
6696;DHT22;3385;48.928;10.330;2022-11-18T05:23:39;6.20;99.90
6696;DHT22;3385;48.928;10.330;2022-11-18T05:26:06;6.20;99.90
6696;DHT22;3385;48.928;10.330;2022-11-18T05:28:32;6.10;99.90
6696;DHT22;3385;48.928;10.330;2022-11-18T05:30:58;6.10;99.90
6696;DHT22;3385;48.928;10.330;2022-11-18T05:33:24;6.00;99.90
6696;DHT22;3385;48.928;10.330;2022-11-18T05:35:50;5.90;99.90
6696;DHT22;3385;48.928;10.330;2022-11-18T05:38:16;5.90;99.90
6696;DHT22;3385;48.928;10.330;2022-11-18T05:40:42;5.90;99.90
6696;DHT22;3385;48.928;10.330;2022-11-18T05:43:11;5.90;99.90
6696;DHT22;3385;48.928;10.330;2022-11-18T05:45:39;5.80;99.90
6696;DHT22;3385;48.928;10.330;2022-11-18T05:48:06;5.80;99.90
6696;DHT22;3385;48.928;10.330;2022-11-18T05:50:36;5.80;99.90
6696;DHT22;3385;48.928;10.330;2022-11-18T05:53:03;5.80;99.90
6696;DHT22;3385;48.928;10.330;2022-11-18T05:58:46;5.70;99.90
6696;DHT22;3385;48.928;10.330;2022-11-18T06:01:25;5.70;99.90
6696;DHT22;3385;48.928;10.330;2022-11-18T06:03:52;5.70;99.90
6696;DHT22;3385;48.928;10.330;2022-11-18T06:06:20;5.70;99.90
6696;DHT22;3385;48.928;10.330;2022-11-18T06:08:55;5.60;99.90
6696;DHT22;3385;48.928;10.330;2022-11-18T06:11:23;5.60;99.90
6696;DHT22;3385;48.928;10.330;2022-11-18T06:14:00;5.50;99.90
6696;DHT22;3385;48.928;10.330;2022-11-18T06:16:30;5.50;99.90
6696;DHT22;3385;48.928;10.330;2022-11-18T06:18:57;5.50;99.90
6696;DHT22;3385;48.928;10.330;2022-11-18T06:21:23;5.50;99.90
6696;DHT22;3385;48.928;10.330;2022-11-18T06:23:49;5.50;99.90
6696;DHT22;3385;48.928;10.330;2022-11-18T06:26:15;5.50;99.90
6696;DHT22;3385;48.928;10.330;2022-11-18T06:28:44;5.40;99.90
6696;DHT22;3385;48.928;10.330;2022-11-18T06:31:10;5.40;99.90
6696;DHT22;3385;48.928;10.330;2022-11-18T06:33:36;5.40;99.90
6696;DHT22;3385;48.928;10.330;2022-11-18T06:36:02;5.30;99.90
6696;DHT22;3385;48.928;10.330;2022-11-18T06:38:28;5.30;99.90
6696;DHT22;3385;48.928;10.330;2022-11-18T06:40:58;5.30;99.90
6696;DHT22;3385;48.928;10.330;2022-11-18T06:43:24;5.30;99.90
6696;DHT22;3385;48.928;10.330;2022-11-18T06:46:16;5.30;99.90
6696;DHT22;3385;48.928;10.330;2022-11-18T06:49:01;5.30;99.90
6696;DHT22;3385;48.928;10.330;2022-11-18T06:51:27;5.30;99.90
6696;DHT22;3385;48.928;10.330;2022-11-18T06:53:53;5.30;99.90
6696;DHT22;3385;48.928;10.330;2022-11-18T06:56:20;5.30;99.90
6696;DHT22;3385;48.928;10.330;2022-11-18T06:58:47;5.30;99.90
6696;DHT22;3385;48.928;10.330;2022-11-18T07:01:19;5.30;99.90
6696;DHT22;3385;48.928;10.330;2022-11-18T07:03:49;5.30;99.90
6696;DHT22;3385;48.928;10.330;2022-11-18T07:06:18;5.30;99.90
6696;DHT22;3385;48.928;10.330;2022-11-18T07:08:45;5.30;99.90
6696;DHT22;3385;48.928;10.330;2022-11-18T07:11:13;5.20;99.90
6696;DHT22;3385;48.928;10.330;2022-11-18T07:13:39;5.30;99.90
6696;DHT22;3385;48.928;10.330;2022-11-18T07:16:10;5.20;99.90
6696;DHT22;3385;48.928;10.330;2022-11-18T07:18:38;5.30;99.90
6696;DHT22;3385;48.928;10.330;2022-11-18T07:21:08;5.30;99.90
6696;DHT22;3385;48.928;10.330;2022-11-18T07:23:34;5.30;99.90
6696;DHT22;3385;48.928;10.330;2022-11-18T07:26:00;5.30;99.90
6696;DHT22;3385;48.928;10.330;2022-11-18T07:28:27;5.30;99.90
6696;DHT22;3385;48.928;10.330;2022-11-18T07:31:02;5.30;99.90
6696;DHT22;3385;48.928;10.330;2022-11-18T07:33:30;5.30;99.90
6696;DHT22;3385;48.928;10.330;2022-11-18T07:36:03;5.30;99.90
6696;DHT22;3385;48.928;10.330;2022-11-18T07:38:29;5.30;99.90
6696;DHT22;3385;48.928;10.330;2022-11-18T07:41:01;5.30;99.90
6696;DHT22;3385;48.928;10.330;2022-11-18T07:43:27;5.30;99.90
6696;DHT22;3385;48.928;10.330;2022-11-18T07:45:53;5.30;99.90
6696;DHT22;3385;48.928;10.330;2022-11-18T07:48:19;5.40;99.90
6696;DHT22;3385;48.928;10.330;2022-11-18T07:50:44;5.40;99.90
6696;DHT22;3385;48.928;10.330;2022-11-18T07:53:10;5.40;99.90
6696;DHT22;3385;48.928;10.330;2022-11-18T07:55:36;5.40;99.90
6696;DHT22;3385;48.928;10.330;2022-11-18T07:58:01;5.40;99.90
6696;DHT22;3385;48.928;10.330;2022-11-18T08:00:28;5.40;99.90
6696;DHT22;3385;48.928;10.330;2022-11-18T08:02:53;5.40;99.90
6696;DHT22;3385;48.928;10.330;2022-11-18T08:05:19;5.50;99.90
6696;DHT22;3385;48.928;10.330;2022-11-18T08:07:45;5.50;99.90
6696;DHT22;3385;48.928;10.330;2022-11-18T08:10:11;5.50;99.90
6696;DHT22;3385;48.928;10.330;2022-11-18T08:12:36;5.50;99.90
6696;DHT22;3385;48.928;10.330;2022-11-18T08:15:02;5.50;99.90
6696;DHT22;3385;48.928;10.330;2022-11-18T08:17:28;5.50;99.90
6696;DHT22;3385;48.928;10.330;2022-11-18T08:19:54;5.50;99.90
6696;DHT22;3385;48.928;10.330;2022-11-18T08:22:20;5.50;99.90
6696;DHT22;3385;48.928;10.330;2022-11-18T08:24:46;5.50;99.90
6696;DHT22;3385;48.928;10.330;2022-11-18T08:27:12;5.60;99.90
6696;DHT22;3385;48.928;10.330;2022-11-18T08:29:39;5.60;99.90
6696;DHT22;3385;48.928;10.330;2022-11-18T08:32:05;5.60;99.90
6696;DHT22;3385;48.928;10.330;2022-11-18T08:34:31;5.60;99.90
6696;DHT22;3385;48.928;10.330;2022-11-18T08:36:57;5.70;99.90
6696;DHT22;3385;48.928;10.330;2022-11-18T08:39:22;5.60;99.90
6696;DHT22;3385;48.928;10.330;2022-11-18T08:41:48;5.70;99.90
6696;DHT22;3385;48.928;10.330;2022-11-18T08:44:15;5.70;99.90
6696;DHT22;3385;48.928;10.330;2022-11-18T08:46:42;5.70;99.90
6696;DHT22;3385;48.928;10.330;2022-11-18T08:49:11;5.70;99.90
6696;DHT22;3385;48.928;10.330;2022-11-18T08:51:37;5.70;99.90
6696;DHT22;3385;48.928;10.330;2022-11-18T08:54:02;5.80;99.90
6696;DHT22;3385;48.928;10.330;2022-11-18T08:56:28;5.80;99.90
6696;DHT22;3385;48.928;10.330;2022-11-18T08:58:55;5.80;99.90
6696;DHT22;3385;48.928;10.330;2022-11-18T09:01:21;5.80;99.90
6696;DHT22;3385;48.928;10.330;2022-11-18T09:03:47;5.80;99.90
6696;DHT22;3385;48.928;10.330;2022-11-18T09:06:18;5.80;99.90
6696;DHT22;3385;48.928;10.330;2022-11-18T09:08:44;5.90;99.90
6696;DHT22;3385;48.928;10.330;2022-11-18T09:11:16;5.90;99.90
6696;DHT22;3385;48.928;10.330;2022-11-18T09:13:42;6.00;99.90
6696;DHT22;3385;48.928;10.330;2022-11-18T09:16:08;5.90;99.90
6696;DHT22;3385;48.928;10.330;2022-11-18T09:18:33;6.00;99.90
6696;DHT22;3385;48.928;10.330;2022-11-18T09:21:09;6.10;99.90
6696;DHT22;3385;48.928;10.330;2022-11-18T09:23:36;6.00;99.90
6696;DHT22;3385;48.928;10.330;2022-11-18T09:26:08;6.00;99.90
6696;DHT22;3385;48.928;10.330;2022-11-18T09:28:35;6.00;99.90
6696;DHT22;3385;48.928;10.330;2022-11-18T09:31:05;6.00;99.90
6696;DHT22;3385;48.928;10.330;2022-11-18T09:33:33;6.00;99.90
6696;DHT22;3385;48.928;10.330;2022-11-18T09:35:59;6.20;99.90
6696;DHT22;3385;48.928;10.330;2022-11-18T09:38:24;6.20;99.90
6696;DHT22;3385;48.928;10.330;2022-11-18T09:43:50;6.30;99.90
6696;DHT22;3385;48.928;10.330;2022-11-18T09:46:32;6.40;99.90
6696;DHT22;3385;48.928;10.330;2022-11-18T09:49:14;6.40;99.90
6696;DHT22;3385;48.928;10.330;2022-11-18T09:51:42;6.20;99.90
6696;DHT22;3385;48.928;10.330;2022-11-18T09:54:34;6.20;99.90
6696;DHT22;3385;48.928;10.330;2022-11-18T09:57:22;6.30;99.90
6696;DHT22;3385;48.928;10.330;2022-11-18T09:59:49;6.40;99.90
6696;DHT22;3385;48.928;10.330;2022-11-18T10:05:39;4.90;99.90
6696;DHT22;3385;48.928;10.330;2022-11-18T10:08:18;6.50;99.90
6696;DHT22;3385;48.928;10.330;2022-11-18T10:11:06;6.40;99.90
6696;DHT22;3385;48.928;10.330;2022-11-18T10:16:21;6.30;99.90
6696;DHT22;3385;48.928;10.330;2022-11-18T10:19:39;6.20;99.90
6696;DHT22;3385;48.928;10.330;2022-11-18T10:24:53;6.20;99.90
6696;DHT22;3385;48.928;10.330;2022-11-18T10:27:19;6.10;99.90
6696;DHT22;3385;48.928;10.330;2022-11-18T10:29:51;6.20;99.90
6696;DHT22;3385;48.928;10.330;2022-11-18T10:32:18;6.10;99.90
6696;DHT22;3385;48.928;10.330;2022-11-18T10:34:53;6.10;99.90
6696;DHT22;3385;48.928;10.330;2022-11-18T10:37:34;6.10;99.90
6696;DHT22;3385;48.928;10.330;2022-11-18T10:40:04;6.00;99.90
6696;DHT22;3385;48.928;10.330;2022-11-18T10:42:44;6.00;99.90
6696;DHT22;3385;48.928;10.330;2022-11-18T10:48:05;6.10;99.90
6696;DHT22;3385;48.928;10.330;2022-11-18T10:50:37;6.00;99.90
6696;DHT22;3385;48.928;10.330;2022-11-18T10:53:05;6.00;99.90
6696;DHT22;3385;48.928;10.330;2022-11-18T10:55:32;6.10;99.90
6696;DHT22;3385;48.928;10.330;2022-11-18T10:58:12;6.20;99.90
6696;DHT22;3385;48.928;10.330;2022-11-18T11:00:47;6.10;99.90
6696;DHT22;3385;48.928;10.330;2022-11-18T11:08:51;6.20;99.90
6696;DHT22;3385;48.928;10.330;2022-11-18T11:11:57;6.10;99.90
6696;DHT22;3385;48.928;10.330;2022-11-18T11:16:57;6.10;99.90
6696;DHT22;3385;48.928;10.330;2022-11-18T11:19:30;6.10;99.90
6696;DHT22;3385;48.928;10.330;2022-11-18T11:21:57;6.00;99.90
6696;DHT22;3385;48.928;10.330;2022-11-18T11:24:25;6.00;99.90
6696;DHT22;3385;48.928;10.330;2022-11-18T11:30:19;6.10;99.90
6696;DHT22;3385;48.928;10.330;2022-11-18T11:36:07;6.30;99.90
6696;DHT22;3385;48.928;10.330;2022-11-18T11:49:17;6.40;99.90
6696;DHT22;3385;48.928;10.330;2022-11-18T11:59:52;6.50;99.90
6696;DHT22;3385;48.928;10.330;2022-11-18T12:05:21;6.50;99.90
6696;DHT22;3385;48.928;10.330;2022-11-18T12:07:57;6.50;99.90
6696;DHT22;3385;48.928;10.330;2022-11-18T12:10:42;6.40;99.90
6696;DHT22;3385;48.928;10.330;2022-11-18T12:20:59;6.50;99.90
6696;DHT22;3385;48.928;10.330;2022-11-18T12:23:30;6.40;99.90
6696;DHT22;3385;48.928;10.330;2022-11-18T12:33:59;6.50;99.90
6696;DHT22;3385;48.928;10.330;2022-11-18T12:36:39;6.60;99.90
6696;DHT22;3385;48.928;10.330;2022-11-18T12:41:57;6.50;99.90
6696;DHT22;3385;48.928;10.330;2022-11-18T12:44:43;6.50;99.90
6696;DHT22;3385;48.928;10.330;2022-11-18T12:47:55;6.50;99.90
6696;DHT22;3385;48.928;10.330;2022-11-18T12:54:59;6.70;99.90
6696;DHT22;3385;48.928;10.330;2022-11-18T12:57:28;6.70;99.90
6696;DHT22;3385;48.928;10.330;2022-11-18T12:59:54;6.80;99.90
6696;DHT22;3385;48.928;10.330;2022-11-18T13:02:27;6.80;99.90
6696;DHT22;3385;48.928;10.330;2022-11-18T13:07:49;6.90;99.90
6696;DHT22;3385;48.928;10.330;2022-11-18T13:10:48;6.90;99.90
6696;DHT22;3385;48.928;10.330;2022-11-18T13:13:25;6.90;99.90
6696;DHT22;3385;48.928;10.330;2022-11-18T13:15:54;6.90;99.90
6696;DHT22;3385;48.928;10.330;2022-11-18T13:18:52;6.90;99.90
6696;DHT22;3385;48.928;10.330;2022-11-18T13:21:23;6.90;99.90
6696;DHT22;3385;48.928;10.330;2022-11-18T13:24:19;6.90;99.90
6696;DHT22;3385;48.928;10.330;2022-11-18T13:26:46;6.90;99.90
6696;DHT22;3385;48.928;10.330;2022-11-18T13:29:41;7.00;99.90
6696;DHT22;3385;48.928;10.330;2022-11-18T13:32:23;6.90;99.90
6696;DHT22;3385;48.928;10.330;2022-11-18T13:34:53;7.00;99.90
6696;DHT22;3385;48.928;10.330;2022-11-18T13:37:25;7.00;99.90
6696;DHT22;3385;48.928;10.330;2022-11-18T13:39:52;7.10;99.90
6696;DHT22;3385;48.928;10.330;2022-11-18T13:42:23;7.10;99.90
6696;DHT22;3385;48.928;10.330;2022-11-18T13:44:57;7.10;99.90
6696;DHT22;3385;48.928;10.330;2022-11-18T13:53:28;7.10;99.90
6696;DHT22;3385;48.928;10.330;2022-11-18T13:56:03;7.00;99.90
6696;DHT22;3385;48.928;10.330;2022-11-18T13:58:44;7.10;99.90
6696;DHT22;3385;48.928;10.330;2022-11-18T14:01:18;7.00;99.90
6696;DHT22;3385;48.928;10.330;2022-11-18T14:03:57;7.00;99.90
6696;DHT22;3385;48.928;10.330;2022-11-18T14:09:24;7.20;99.90
6696;DHT22;3385;48.928;10.330;2022-11-18T14:12:04;7.30;99.90
6696;DHT22;3385;48.928;10.330;2022-11-18T14:14:35;7.30;99.90
6696;DHT22;3385;48.928;10.330;2022-11-18T14:17:15;7.30;99.90
6696;DHT22;3385;48.928;10.330;2022-11-18T14:19:42;7.30;99.90
6696;DHT22;3385;48.928;10.330;2022-11-18T14:22:14;7.30;99.90
6696;DHT22;3385;48.928;10.330;2022-11-18T14:24:41;7.20;99.90
6696;DHT22;3385;48.928;10.330;2022-11-18T14:27:26;7.10;99.90
6696;DHT22;3385;48.928;10.330;2022-11-18T14:29:52;7.20;99.90
6696;DHT22;3385;48.928;10.330;2022-11-18T14:32:18;7.10;99.90
6696;DHT22;3385;48.928;10.330;2022-11-18T14:34:45;7.00;99.90
6696;DHT22;3385;48.928;10.330;2022-11-18T14:37:13;7.00;99.90
6696;DHT22;3385;48.928;10.330;2022-11-18T14:39:39;7.00;99.90
6696;DHT22;3385;48.928;10.330;2022-11-18T14:42:10;7.00;99.90
6696;DHT22;3385;48.928;10.330;2022-11-18T14:44:37;7.00;99.90
6696;DHT22;3385;48.928;10.330;2022-11-18T14:47:24;6.90;99.90
6696;DHT22;3385;48.928;10.330;2022-11-18T14:49:51;6.90;99.90
6696;DHT22;3385;48.928;10.330;2022-11-18T14:52:16;6.90;99.90
6696;DHT22;3385;48.928;10.330;2022-11-18T14:54:42;6.80;99.90
6696;DHT22;3385;48.928;10.330;2022-11-18T14:57:14;6.80;99.90
6696;DHT22;3385;48.928;10.330;2022-11-18T14:59:41;6.80;99.90
6696;DHT22;3385;48.928;10.330;2022-11-18T15:02:16;6.80;99.90
6696;DHT22;3385;48.928;10.330;2022-11-18T15:04:42;6.80;99.90
6696;DHT22;3385;48.928;10.330;2022-11-18T15:07:12;6.70;99.90
6696;DHT22;3385;48.928;10.330;2022-11-18T15:09:39;6.70;99.90
6696;DHT22;3385;48.928;10.330;2022-11-18T15:12:04;6.70;99.90
6696;DHT22;3385;48.928;10.330;2022-11-18T15:14:30;6.70;99.90
6696;DHT22;3385;48.928;10.330;2022-11-18T15:16:56;6.60;99.90
6696;DHT22;3385;48.928;10.330;2022-11-18T15:19:22;6.60;99.90
6696;DHT22;3385;48.928;10.330;2022-11-18T15:21:47;6.50;99.90
6696;DHT22;3385;48.928;10.330;2022-11-18T15:24:13;6.50;99.90
6696;DHT22;3385;48.928;10.330;2022-11-18T15:26:42;6.40;99.90
6696;DHT22;3385;48.928;10.330;2022-11-18T15:31:40;6.40;99.90
6696;DHT22;3385;48.928;10.330;2022-11-18T15:34:05;6.40;99.90
6696;DHT22;3385;48.928;10.330;2022-11-18T15:36:31;6.40;99.90
6696;DHT22;3385;48.928;10.330;2022-11-18T15:38:57;6.40;99.90
6696;DHT22;3385;48.928;10.330;2022-11-18T15:41:25;6.40;99.90
6696;DHT22;3385;48.928;10.330;2022-11-18T15:43:54;6.30;99.90
6696;DHT22;3385;48.928;10.330;2022-11-18T15:46:22;6.30;99.90
6696;DHT22;3385;48.928;10.330;2022-11-18T15:48:55;6.40;99.90
6696;DHT22;3385;48.928;10.330;2022-11-18T15:51:22;6.40;99.90
6696;DHT22;3385;48.928;10.330;2022-11-18T15:53:48;6.40;99.90
6696;DHT22;3385;48.928;10.330;2022-11-18T15:56:27;6.30;99.90
6696;DHT22;3385;48.928;10.330;2022-11-18T15:58:57;6.30;99.90
6696;DHT22;3385;48.928;10.330;2022-11-18T16:01:46;6.30;99.90
6696;DHT22;3385;48.928;10.330;2022-11-18T16:04:15;6.20;99.90
6696;DHT22;3385;48.928;10.330;2022-11-18T16:06:41;6.20;99.90
6696;DHT22;3385;48.928;10.330;2022-11-18T16:09:11;6.20;99.90
6696;DHT22;3385;48.928;10.330;2022-11-18T16:11:37;6.20;99.90
6696;DHT22;3385;48.928;10.330;2022-11-18T16:14:22;6.20;99.90
6696;DHT22;3385;48.928;10.330;2022-11-18T16:16:50;6.10;99.90
6696;DHT22;3385;48.928;10.330;2022-11-18T16:19:18;6.10;99.90
6696;DHT22;3385;48.928;10.330;2022-11-18T16:21:50;6.00;99.90
6696;DHT22;3385;48.928;10.330;2022-11-18T16:24:19;6.00;99.90
6696;DHT22;3385;48.928;10.330;2022-11-18T16:26:46;6.00;99.90
6696;DHT22;3385;48.928;10.330;2022-11-18T16:29:12;6.00;99.90
6696;DHT22;3385;48.928;10.330;2022-11-18T16:31:40;6.00;99.90
6696;DHT22;3385;48.928;10.330;2022-11-18T16:34:16;6.10;99.90
6696;DHT22;3385;48.928;10.330;2022-11-18T16:36:44;6.10;99.90
6696;DHT22;3385;48.928;10.330;2022-11-18T16:39:13;5.30;99.90
6696;DHT22;3385;48.928;10.330;2022-11-18T16:41:40;6.20;99.90
6696;DHT22;3385;48.928;10.330;2022-11-18T16:44:08;6.20;99.90
6696;DHT22;3385;48.928;10.330;2022-11-18T16:46:36;6.20;99.90
6696;DHT22;3385;48.928;10.330;2022-11-18T16:49:03;6.10;99.90
6696;DHT22;3385;48.928;10.330;2022-11-18T16:51:31;6.10;99.90
6696;DHT22;3385;48.928;10.330;2022-11-18T16:54:02;6.10;99.90
6696;DHT22;3385;48.928;10.330;2022-11-18T16:56:30;6.10;99.90
6696;DHT22;3385;48.928;10.330;2022-11-18T16:59:09;6.10;99.90
6696;DHT22;3385;48.928;10.330;2022-11-18T17:01:35;6.10;99.90
6696;DHT22;3385;48.928;10.330;2022-11-18T17:04:01;6.10;99.90
6696;DHT22;3385;48.928;10.330;2022-11-18T17:06:28;6.10;99.90
6696;DHT22;3385;48.928;10.330;2022-11-18T17:08:55;6.10;99.90
6696;DHT22;3385;48.928;10.330;2022-11-18T17:11:20;6.10;99.90
6696;DHT22;3385;48.928;10.330;2022-11-18T17:13:46;6.10;99.90
6696;DHT22;3385;48.928;10.330;2022-11-18T17:16:20;6.10;99.90
6696;DHT22;3385;48.928;10.330;2022-11-18T17:18:46;6.10;99.90
6696;DHT22;3385;48.928;10.330;2022-11-18T17:21:14;6.10;99.90
6696;DHT22;3385;48.928;10.330;2022-11-18T17:23:44;6.20;99.90
6696;DHT22;3385;48.928;10.330;2022-11-18T17:26:11;6.20;99.90
6696;DHT22;3385;48.928;10.330;2022-11-18T17:28:38;6.20;99.90
6696;DHT22;3385;48.928;10.330;2022-11-18T17:31:12;6.10;99.90
6696;DHT22;3385;48.928;10.330;2022-11-18T17:33:38;6.10;99.90
6696;DHT22;3385;48.928;10.330;2022-11-18T17:36:10;6.00;99.90
6696;DHT22;3385;48.928;10.330;2022-11-18T17:38:38;6.00;99.90
6696;DHT22;3385;48.928;10.330;2022-11-18T17:41:05;6.00;99.90
6696;DHT22;3385;48.928;10.330;2022-11-18T17:43:31;5.90;99.90
6696;DHT22;3385;48.928;10.330;2022-11-18T17:45:59;5.90;99.90
6696;DHT22;3385;48.928;10.330;2022-11-18T17:48:28;5.80;99.90
6696;DHT22;3385;48.928;10.330;2022-11-18T17:51:03;5.80;99.90
6696;DHT22;3385;48.928;10.330;2022-11-18T17:53:29;5.70;99.90
6696;DHT22;3385;48.928;10.330;2022-11-18T17:55:55;5.70;99.90
6696;DHT22;3385;48.928;10.330;2022-11-18T17:58:21;5.60;99.90
6696;DHT22;3385;48.928;10.330;2022-11-18T18:00:47;5.60;99.90
6696;DHT22;3385;48.928;10.330;2022-11-18T18:03:13;5.50;99.90
6696;DHT22;3385;48.928;10.330;2022-11-18T18:05:38;5.50;99.90
6696;DHT22;3385;48.928;10.330;2022-11-18T18:08:04;5.50;99.90
6696;DHT22;3385;48.928;10.330;2022-11-18T18:10:37;5.60;99.90
6696;DHT22;3385;48.928;10.330;2022-11-18T18:13:03;5.60;99.90